Wright Pat, Ohio
Current Conditions -  °F | °C
As of 8:58 AM on Saturday 25 Oct 2014 (Local Time) from KFFO Reporting Station
Overcast Overcast  
Wind Chill: 50°   Ceiling: 4200
Heat Index: 50°   Visibility: 10mi
Dew Point: 47°   Wind: 5mph
Humidity: 90%   Direction: 160°SSE
Pressure: 29.97"   Gusts: NA
Location:  39.8169°N, 84.0506°W
Report Text: KFFO 251258Z AUTO 16004KT 10SM OVC042 10/09 A2997 RMK AO2 SLP153 T01010085
Loading
Personal Weather Stations






























Interactive Weather Map New forecast layout! Learn more

10-Day Weather Forecast

Advertisements
Track Severe Weather on mobile